Terminal Aerodrome Forecast
Issued by NWS

Home | Current Version | Previous Version | Text Only | Print | Product List | Glossary On
Versions: 1 2 3 4 5 6 7 8 9 10 11 12 13 14 15 16 17
826
FTUS41 KAKQ 052322
TAFPHF
TAF
KPHF 052322Z 0600/0624 VRB03KT P6SM SCT200
     FM060700 04004KT P6SM OVC080
     FM061100 06005KT 5SM -RA BR OVC050
     FM061300 07009KT 5SM -RA BR OVC035
     FM061500 08012G19KT 2SM RA BR OVC012
     FM061700 09012G19KT 1SM RA BR OVC008=

USA.gov is the U.S. government's official web portal to all federal, state and local government web resources and services.